createdAt,value
2022-09-07T00:00:52.190Z,4.13
2022-09-07T00:03:19.656Z,4.80
2022-09-07T00:05:51.796Z,4.70
2022-09-07T00:08:23.034Z,4.05
2022-09-07T00:11:13.046Z,4.30
2022-09-07T00:13:40.695Z,4.15
2022-09-07T00:16:14.225Z,4.10
2022-09-07T00:18:46.084Z,4.63
2022-09-07T00:21:16.426Z,4.50
2022-09-07T00:23:43.664Z,4.05
2022-09-07T00:26:13.673Z,4.20
2022-09-07T00:28:40.680Z,4.50
2022-09-07T00:31:16.581Z,5.32
2022-09-07T00:33:49.198Z,4.50
2022-09-07T00:36:17.265Z,5.18
2022-09-07T00:38:44.360Z,4.70
2022-09-07T00:41:11.629Z,4.55
2022-09-07T00:43:53.203Z,5.13
2022-09-07T00:46:34.998Z,4.72
2022-09-07T00:49:08.341Z,4.93
2022-09-07T00:51:47.157Z,4.95
2022-09-07T00:54:23.373Z,4.40
2022-09-07T00:56:52.936Z,4.78
2022-09-07T00:59:29.308Z,5.65
2022-09-07T01:01:56.467Z,4.82
2022-09-07T01:04:24.264Z,4.95
2022-09-07T01:06:51.587Z,4.65
2022-09-07T01:09:22.316Z,4.95
2022-09-07T01:11:51.346Z,4.97
2022-09-07T01:14:29.141Z,5.43
2022-09-07T01:17:01.907Z,4.35
2022-09-07T01:20:05.826Z,4.50
2022-09-07T01:22:53.975Z,4.25
2022-09-07T01:25:39.937Z,4.30
2022-09-07T01:28:26.468Z,4.57
2022-09-07T01:31:18.382Z,4.43
2022-09-07T01:34:35.382Z,5.03
2022-09-07T01:37:05.378Z,4.57
2022-09-07T01:39:48.357Z,4.30
2022-09-07T01:42:15.826Z,4.15
2022-09-07T01:44:49.074Z,4.68
2022-09-07T01:47:21.234Z,4.30
2022-09-07T01:49:51.297Z,4.40
2022-09-07T01:52:37.085Z,4.50
2022-09-07T01:55:14.138Z,4.25
2022-09-07T01:57:46.569Z,4.78
2022-09-07T02:00:15.872Z,5.00
2022-09-07T02:03:07.941Z,4.60
2022-09-07T02:05:41.757Z,4.57
2022-09-07T02:08:17.726Z,4.90
2022-09-07T02:10:52.307Z,4.75
2022-09-07T02:13:24.056Z,5.10
2022-09-07T02:16:00.682Z,5.40
2022-09-07T02:18:33.671Z,4.82
2022-09-07T02:21:04.236Z,4.93
2022-09-07T02:23:37.183Z,5.22
2022-09-07T02:26:11.591Z,4.82
2022-09-07T02:28:44.017Z,5.78
2022-09-07T02:31:10.900Z,5.40
2022-09-07T02:33:41.305Z,5.63
2022-09-07T02:36:08.555Z,5.68
2022-09-07T02:38:35.494Z,5.95
2022-09-07T02:41:06.050Z,5.45
2022-09-07T02:43:33.439Z,5.50
2022-09-07T02:46:18.866Z,5.50
2022-09-07T02:49:09.484Z,5.93
2022-09-07T02:51:39.371Z,5.38
2022-09-07T02:54:40.238Z,6.22
2022-09-07T02:57:17.778Z,5.85
2022-09-07T03:00:02.810Z,5.30
2022-09-07T03:02:51.817Z,5.20
2022-09-07T03:08:05.331Z,5.82
2022-09-07T03:10:32.598Z,5.43
2022-09-07T03:12:59.339Z,5.80
2022-09-07T03:15:27.813Z,5.63
2022-09-07T03:17:57.239Z,5.97
2022-09-07T03:20:27.575Z,5.63
2022-09-07T03:22:59.109Z,5.88
2022-09-07T03:25:28.355Z,5.47
2022-09-07T03:28:00.915Z,5.70
2022-09-07T03:30:29.974Z,5.45
2022-09-07T03:32:56.746Z,5.63
2022-09-07T03:35:23.869Z,6.05
2022-09-07T03:37:53.248Z,5.53
2022-09-07T03:40:20.327Z,6.80
2022-09-07T03:42:50.652Z,5.55
2022-09-07T03:45:18.209Z,6.30
2022-09-07T03:47:47.233Z,6.57
2022-09-07T03:50:14.582Z,6.32
2022-09-07T03:52:41.403Z,5.80
2022-09-07T03:55:13.454Z,5.97
2022-09-07T04:00:10.520Z,5.97
2022-09-07T04:02:44.803Z,6.22
2022-09-07T04:05:14.078Z,5.55
2022-09-07T04:10:10.547Z,5.97
2022-09-07T04:12:39.958Z,5.95
2022-09-07T04:15:07.385Z,6.18
2022-09-07T04:17:39.723Z,6.13
2022-09-07T04:20:07.652Z,5.60
2022-09-07T04:22:34.836Z,5.93
2022-09-07T04:25:03.704Z,6.07
2022-09-07T04:27:33.280Z,5.55
2022-09-07T04:30:02.586Z,6.20
2022-09-07T04:32:29.863Z,5.72
2022-09-07T04:34:57.177Z,6.25
2022-09-07T04:37:23.902Z,5.95
2022-09-07T04:39:54.024Z,6.28
2022-09-07T04:42:21.176Z,7.07
2022-09-07T04:44:53.851Z,6.30
2022-09-07T04:47:21.231Z,6.32
2022-09-07T04:49:51.642Z,6.45
2022-09-07T04:52:18.804Z,6.60
2022-09-07T04:54:51.123Z,6.72
2022-09-07T04:57:21.708Z,6.90
2022-09-07T04:59:53.424Z,6.78
2022-09-07T05:02:22.713Z,6.75
2022-09-07T05:04:49.670Z,6.05
2022-09-07T05:07:16.412Z,6.20
2022-09-07T05:09:43.387Z,5.97
2022-09-07T05:12:10.794Z,6.65
2022-09-07T05:14:39.757Z,7.07
2022-09-07T05:17:09.393Z,6.28
2022-09-07T05:19:36.240Z,6.35
2022-09-07T05:22:03.063Z,5.88
2022-09-07T05:24:37.788Z,6.40
2022-09-07T05:27:04.853Z,5.85
2022-09-07T05:32:18.829Z,5.70
2022-09-07T05:34:50.889Z,5.88
2022-09-07T05:37:19.220Z,5.60
2022-09-07T05:39:46.083Z,5.35
2022-09-07T05:42:16.471Z,6.13
2022-09-07T05:44:45.981Z,5.78
2022-09-07T05:47:17.196Z,5.82
2022-09-07T05:49:44.129Z,5.05
2022-09-07T05:52:13.439Z,5.40
2022-09-07T05:54:40.444Z,6.03
2022-09-07T05:57:07.476Z,5.10
2022-09-07T05:59:34.277Z,5.20
2022-09-07T06:02:03.557Z,5.82
2022-09-07T06:04:30.471Z,6.80
2022-09-07T06:07:20.569Z,6.97
2022-09-07T06:12:39.388Z,5.88
2022-09-07T06:15:09.933Z,5.15
2022-09-07T06:17:37.601Z,5.50
2022-09-07T06:20:10.101Z,5.32
2022-09-07T06:22:37.740Z,5.22
2022-09-07T06:25:05.359Z,4.75
2022-09-07T06:27:35.594Z,5.35
2022-09-07T06:30:04.561Z,5.68
2022-09-07T06:32:47.356Z,4.20
2022-09-07T06:35:19.941Z,5.10
2022-09-07T06:37:46.759Z,4.30
2022-09-07T06:40:14.137Z,5.20
2022-09-07T06:42:43.601Z,5.43
2022-09-07T06:45:13.714Z,4.57
2022-09-07T06:47:43.509Z,5.88
2022-09-07T06:50:10.606Z,4.97
2022-09-07T06:55:27.927Z,4.90
2022-09-07T06:57:54.845Z,4.45
2022-09-07T07:00:22.570Z,4.22
2022-09-07T07:02:51.755Z,5.18
2022-09-07T07:05:21.296Z,4.35
2022-09-07T07:07:48.594Z,4.68
2022-09-07T07:10:15.506Z,5.35
2022-09-07T07:15:12.591Z,5.20
2022-09-07T07:17:39.352Z,4.53
2022-09-07T07:20:07.244Z,5.70
2022-09-07T07:22:49.428Z,5.20
2022-09-07T07:25:18.357Z,4.68
2022-09-07T07:27:50.364Z,4.63
2022-09-07T07:30:18.288Z,5.47
2022-09-07T07:32:47.779Z,5.00
2022-09-07T07:35:14.958Z,4.53
2022-09-07T07:37:41.741Z,5.30
2022-09-07T07:42:44.113Z,4.30
2022-09-07T07:48:01.225Z,5.53
2022-09-07T07:50:31.999Z,5.45
2022-09-07T07:55:49.639Z,4.55
2022-09-07T07:58:16.583Z,5.07
2022-09-07T08:00:54.267Z,3.75
2022-09-07T08:03:24.863Z,5.78
2022-09-07T08:05:52.423Z,4.60
2022-09-07T08:08:19.726Z,4.45
2022-09-07T08:10:47.974Z,4.78
2022-09-07T08:13:19.148Z,5.20
2022-09-07T08:15:48.835Z,5.15
2022-09-07T08:18:17.532Z,5.47
2022-09-07T08:20:46.890Z,5.65
2022-09-07T08:23:14.730Z,5.07
2022-09-07T08:25:52.668Z,4.43
2022-09-07T08:28:23.914Z,3.40
2022-09-07T08:30:50.684Z,5.40
2022-09-07T08:33:18.166Z,3.72
2022-09-07T08:36:16.591Z,4.57
2022-09-07T08:38:49.035Z,4.30
2022-09-07T08:41:43.961Z,4.80
2022-09-07T08:44:13.774Z,5.40
2022-09-07T08:47:00.279Z,5.20
2022-09-07T08:49:47.612Z,4.43
2022-09-07T08:52:31.682Z,5.55
2022-09-07T08:55:15.371Z,4.40
2022-09-07T08:57:48.215Z,5.32
2022-09-07T09:00:18.008Z,4.93
2022-09-07T09:02:45.739Z,4.78
2022-09-07T09:05:34.390Z,4.60
2022-09-07T09:08:29.688Z,3.85
2022-09-07T09:11:11.238Z,3.20
2022-09-07T09:13:53.248Z,3.55
2022-09-07T09:16:54.578Z,3.42
2022-09-07T09:19:51.722Z,4.53
2022-09-07T09:22:21.207Z,3.58
2022-09-07T09:24:51.854Z,3.38
2022-09-07T09:27:21.362Z,4.15
2022-09-07T09:29:48.344Z,3.50
2022-09-07T09:32:39.913Z,4.40
2022-09-07T09:35:32.181Z,2.83
2022-09-07T09:37:58.908Z,2.45
2022-09-07T09:40:31.717Z,4.82
2022-09-07T09:43:06.140Z,2.67
2022-09-07T09:48:40.411Z,3.13
2022-09-07T09:54:06.095Z,2.80
2022-09-07T09:56:42.160Z,3.03
2022-09-07T10:05:27.192Z,3.10
2022-09-07T10:07:54.057Z,3.35
2022-09-07T10:10:21.144Z,2.55
2022-09-07T10:12:47.884Z,3.30
2022-09-07T10:15:34.465Z,3.03
2022-09-07T10:20:41.600Z,2.60
2022-09-07T10:23:23.104Z,3.58
2022-09-07T10:25:51.215Z,3.08
2022-09-07T10:28:24.287Z,3.28
2022-09-07T10:31:00.235Z,2.72
2022-09-07T10:33:37.677Z,2.72
2022-09-07T10:36:15.713Z,2.85
2022-09-07T10:38:51.059Z,2.67
2022-09-07T10:41:19.520Z,3.00
2022-09-07T10:43:51.177Z,3.38
2022-09-07T10:49:32.746Z,2.85
2022-09-07T10:52:17.767Z,2.85
2022-09-07T10:54:55.176Z,2.58
2022-09-07T10:57:34.997Z,3.22
2022-09-07T11:00:08.305Z,2.63
2022-09-07T11:03:24.947Z,2.50
2022-09-07T11:05:36.031Z,2.83
2022-09-07T11:14:19.412Z,2.85
2022-09-07T11:16:59.200Z,2.60
2022-09-07T11:19:38.352Z,3.08
2022-09-07T11:22:42.275Z,2.75
2022-09-07T11:25:32.791Z,3.78
2022-09-07T11:28:33.237Z,3.40
2022-09-07T11:31:06.259Z,3.50
2022-09-07T11:36:46.323Z,3.60
2022-09-07T11:39:18.837Z,3.10
2022-09-07T11:45:01.784Z,3.50
2022-09-07T11:47:39.842Z,3.15
2022-09-07T11:50:20.926Z,4.28
2022-09-07T11:52:58.365Z,4.70
2022-09-07T11:55:29.989Z,4.33
2022-09-07T11:58:20.122Z,4.07
2022-09-07T12:01:15.981Z,5.15
2022-09-07T12:04:07.673Z,4.45
2022-09-07T12:06:55.026Z,4.95
2022-09-07T12:09:55.311Z,7.07
2022-09-07T12:12:42.129Z,5.50
2022-09-07T12:15:32.916Z,6.15
2022-09-07T12:18:10.208Z,9.63
2022-09-07T12:20:44.391Z,5.40
2022-09-07T12:23:16.992Z,5.60
2022-09-07T12:25:46.179Z,6.30
2022-09-07T12:28:22.981Z,6.38
2022-09-07T12:30:56.525Z,7.07
2022-09-07T12:33:28.169Z,6.90
2022-09-07T12:35:57.995Z,7.00
2022-09-07T12:38:31.903Z,6.78
2022-09-07T12:41:02.151Z,7.55
2022-09-07T12:43:34.493Z,6.63
2022-09-07T12:46:01.964Z,7.07
2022-09-07T12:48:56.123Z,6.77
2022-09-07T12:54:45.013Z,6.60
2022-09-07T12:57:31.189Z,6.70
2022-09-07T13:00:23.454Z,7.07
2022-09-07T13:03:49.459Z,6.43
2022-09-07T13:06:17.742Z,6.25
2022-09-07T13:08:50.543Z,5.75
2022-09-07T13:11:20.790Z,8.27
2022-09-07T13:14:08.464Z,6.07
2022-09-07T13:19:46.395Z,6.05
2022-09-07T13:22:31.468Z,6.05
2022-09-07T13:25:02.103Z,6.70
2022-09-07T13:28:12.372Z,6.70
2022-09-07T13:31:06.152Z,6.45
2022-09-07T13:33:35.911Z,5.70
2022-09-07T13:36:06.261Z,6.32
2022-09-07T13:38:35.075Z,6.35
2022-09-07T13:41:07.509Z,5.05
2022-09-07T13:43:40.649Z,5.18
2022-09-07T13:46:32.239Z,4.13
2022-09-07T13:49:29.181Z,4.60
2022-09-07T13:52:07.005Z,4.90
2022-09-07T13:54:46.862Z,5.18
2022-09-07T13:57:31.226Z,5.00
2022-09-07T14:00:01.255Z,5.60
2022-09-07T14:02:38.657Z,4.80
2022-09-07T14:05:06.604Z,4.20
2022-09-07T14:07:36.292Z,5.13
2022-09-07T14:10:26.169Z,4.70
2022-09-07T14:13:02.661Z,4.97
2022-09-07T14:15:35.624Z,4.32
2022-09-07T14:18:05.135Z,4.50
2022-09-07T14:20:40.568Z,3.85
2022-09-07T14:23:47.135Z,4.30
2022-09-07T14:26:23.866Z,4.80
2022-09-07T14:28:54.191Z,3.60
2022-09-07T14:31:25.493Z,3.78
2022-09-07T14:33:55.175Z,3.60
2022-09-07T14:39:15.798Z,3.38
2022-09-07T14:41:43.288Z,3.20
2022-09-07T14:44:32.652Z,3.33
2022-09-07T14:47:05.998Z,3.58
2022-09-07T14:49:35.290Z,3.17
2022-09-07T14:52:04.748Z,2.80
2022-09-07T14:54:35.084Z,3.00
2022-09-07T14:57:09.268Z,2.85
2022-09-07T14:59:40.923Z,2.70
2022-09-07T15:02:20.177Z,2.80
2022-09-07T15:05:13.211Z,2.92
2022-09-07T15:07:41.947Z,2.50
2022-09-07T15:10:21.021Z,2.47
2022-09-07T15:12:53.144Z,2.40
2022-09-07T15:15:21.850Z,3.05
2022-09-07T15:17:49.222Z,3.70
2022-09-07T15:20:41.553Z,3.35
2022-09-07T15:23:19.358Z,2.63
2022-09-07T15:25:54.114Z,3.08
2022-09-07T15:34:10.390Z,2.90
2022-09-07T15:36:46.183Z,3.20
2022-09-07T15:39:24.990Z,3.53
2022-09-07T15:41:54.811Z,3.35
2022-09-07T15:44:26.132Z,3.15
2022-09-07T15:49:50.358Z,3.60
2022-09-07T15:52:18.483Z,3.65
2022-09-07T15:54:45.474Z,3.85
2022-09-07T16:00:04.672Z,4.18
2022-09-07T16:05:33.984Z,4.20
2022-09-07T16:10:55.836Z,3.92
2022-09-07T16:13:38.749Z,4.50
2022-09-07T16:16:08.468Z,4.45
2022-09-07T16:18:38.427Z,4.32
2022-09-07T16:21:13.321Z,4.68
2022-09-07T16:23:43.652Z,5.10
2022-09-07T16:26:14.283Z,5.35
2022-09-07T16:28:46.688Z,4.10
2022-09-07T16:31:16.003Z,4.60
2022-09-07T16:33:45.571Z,4.40
2022-09-07T16:36:14.517Z,4.50
2022-09-07T16:38:49.505Z,4.60
2022-09-07T16:41:28.591Z,4.90
2022-09-07T16:43:56.075Z,4.70
2022-09-07T16:46:26.496Z,4.90
2022-09-07T16:48:58.167Z,6.28
2022-09-07T16:51:28.580Z,5.40
2022-09-07T16:53:56.288Z,5.70
2022-09-07T16:56:25.088Z,5.35
2022-09-07T16:58:58.018Z,6.15
2022-09-07T17:01:35.592Z,5.75
2022-09-07T17:04:06.856Z,5.60
2022-09-07T17:06:40.136Z,5.80
2022-09-07T17:09:11.485Z,5.80
2022-09-07T17:11:38.389Z,6.03
2022-09-07T17:14:08.102Z,6.53
2022-09-07T17:16:37.322Z,5.70
2022-09-07T17:21:57.709Z,6.38
2022-09-07T17:24:25.281Z,7.05
2022-09-07T17:26:52.053Z,6.07
2022-09-07T17:29:22.183Z,6.25
2022-09-07T17:34:42.925Z,6.38
2022-09-07T17:37:15.121Z,6.75
2022-09-07T17:39:44.853Z,5.75
2022-09-07T17:42:11.825Z,6.00
2022-09-07T17:44:41.666Z,5.85
2022-09-07T17:47:11.758Z,6.50
2022-09-07T17:49:41.160Z,6.82
2022-09-07T17:52:12.920Z,6.32
2022-09-07T17:54:42.165Z,7.18
2022-09-07T17:57:09.266Z,8.40
2022-09-07T18:02:23.023Z,7.28
2022-09-07T18:04:50.730Z,7.00
2022-09-07T18:07:17.784Z,6.88
2022-09-07T18:09:44.697Z,7.00
2022-09-07T18:12:13.556Z,7.80
2022-09-07T18:14:40.773Z,7.75
2022-09-07T18:17:08.232Z,7.20
2022-09-07T18:19:38.562Z,7.68
2022-09-07T18:22:06.119Z,6.82
2022-09-07T18:24:42.941Z,7.75
2022-09-07T18:27:10.138Z,8.63
2022-09-07T18:29:39.144Z,9.05
2022-09-07T18:32:11.957Z,8.40
2022-09-07T18:34:41.150Z,9.38
2022-09-07T18:37:12.236Z,7.70
2022-09-07T18:39:42.115Z,8.02
2022-09-07T18:42:11.229Z,7.30
2022-09-07T18:47:35.930Z,7.57
2022-09-07T18:50:02.854Z,8.18
2022-09-07T18:55:20.475Z,8.40
2022-09-07T18:57:49.937Z,8.63
2022-09-07T19:00:17.977Z,9.00
2022-09-07T19:02:52.113Z,8.23
2022-09-07T19:08:08.605Z,8.18
2022-09-07T19:10:39.289Z,8.02
2022-09-07T19:15:47.546Z,7.90
2022-09-07T19:18:14.687Z,8.98
2022-09-07T19:20:44.354Z,8.13
2022-09-07T19:23:11.120Z,9.20
2022-09-07T19:25:41.154Z,9.15
2022-09-07T19:28:08.522Z,9.00
2022-09-07T19:30:38.040Z,8.23
2022-09-07T19:33:09.984Z,9.30
2022-09-07T19:35:37.343Z,8.00
2022-09-07T19:38:04.783Z,8.20
2022-09-07T19:40:31.695Z,9.15
2022-09-07T19:43:01.156Z,7.97
2022-09-07T19:45:28.506Z,9.07
2022-09-07T19:47:55.221Z,8.02
2022-09-07T19:50:22.433Z,7.78
2022-09-07T19:52:52.194Z,8.85
2022-09-07T19:55:21.425Z,8.57
2022-09-07T19:57:52.460Z,7.40
2022-09-07T20:00:22.688Z,8.10
2022-09-07T20:02:54.270Z,7.90
2022-09-07T20:05:29.513Z,8.10
2022-09-07T20:07:56.251Z,7.50
2022-09-07T20:10:23.598Z,7.45
2022-09-07T20:12:50.320Z,8.30
2022-09-07T20:15:17.027Z,7.90
2022-09-07T20:17:43.869Z,8.20
2022-09-07T20:20:10.679Z,8.93
2022-09-07T20:22:37.450Z,7.45
2022-09-07T20:25:04.495Z,8.80
2022-09-07T20:27:32.169Z,8.43
2022-09-07T20:29:58.850Z,8.45
2022-09-07T20:32:27.902Z,8.95
2022-09-07T20:34:54.787Z,9.05
2022-09-07T20:37:28.797Z,8.38
2022-09-07T20:39:55.983Z,8.45
2022-09-07T20:42:25.126Z,8.75
2022-09-07T20:44:51.855Z,8.73
2022-09-07T20:47:18.646Z,8.77
2022-09-07T20:49:48.498Z,9.80
2022-09-07T20:52:17.590Z,9.63
2022-09-07T20:54:44.503Z,9.20
2022-09-07T20:57:14.937Z,8.75
2022-09-07T20:59:45.542Z,8.80
2022-09-07T21:02:12.379Z,10.10
2022-09-07T21:04:39.364Z,9.80
2022-09-07T21:07:06.574Z,9.38
2022-09-07T21:09:37.453Z,10.20
2022-09-07T21:12:10.173Z,9.10
2022-09-07T21:14:44.437Z,9.95
2022-09-07T21:17:17.945Z,10.05
2022-09-07T21:19:45.363Z,10.32
2022-09-07T21:22:15.380Z,9.77
2022-09-07T21:24:48.340Z,10.35
2022-09-07T21:27:17.377Z,10.50
2022-09-07T21:29:48.309Z,10.68
2022-09-07T21:32:16.065Z,11.43
2022-09-07T21:34:44.074Z,12.35
2022-09-07T21:37:13.592Z,10.23
2022-09-07T21:39:40.743Z,10.55
2022-09-07T21:42:08.676Z,10.95
2022-09-07T21:44:38.391Z,11.00
2022-09-07T21:47:09.942Z,10.07
2022-09-07T21:49:39.871Z,11.00
2022-09-07T21:52:07.074Z,11.95
2022-09-07T21:54:34.026Z,11.00
2022-09-07T21:57:01.251Z,10.75
2022-09-07T21:59:30.145Z,10.52
2022-09-07T22:01:56.966Z,9.95
2022-09-07T22:04:26.394Z,10.75
2022-09-07T22:06:53.386Z,10.05
2022-09-07T22:09:20.408Z,11.10
2022-09-07T22:11:51.153Z,10.82
2022-09-07T22:14:20.395Z,10.32
2022-09-07T22:19:21.092Z,10.18
2022-09-07T22:21:50.241Z,11.15
2022-09-07T22:24:17.084Z,11.00
2022-09-07T22:26:43.889Z,12.10
2022-09-07T22:31:45.309Z,10.82
2022-09-07T22:34:12.436Z,10.98
2022-09-07T22:36:42.237Z,11.88
2022-09-07T22:39:16.738Z,10.98
2022-09-07T22:41:44.574Z,10.85
2022-09-07T22:44:20.481Z,11.32
2022-09-07T22:46:49.638Z,12.35
2022-09-07T22:49:17.160Z,10.65
2022-09-07T22:51:46.646Z,11.70
2022-09-07T22:54:16.135Z,11.32
2022-09-07T22:56:46.021Z,11.15
2022-09-07T22:59:17.942Z,11.07
2022-09-07T23:01:47.062Z,11.35
2022-09-07T23:04:15.145Z,12.30
2022-09-07T23:06:44.387Z,11.95
2022-09-07T23:09:16.050Z,11.40
2022-09-07T23:11:46.131Z,11.65
2022-09-07T23:14:18.312Z,12.50
2022-09-07T23:16:48.271Z,11.30
2022-09-07T23:19:20.446Z,11.98
2022-09-07T23:21:47.933Z,11.80
2022-09-07T23:24:18.293Z,11.20
2022-09-07T23:26:49.049Z,12.00
2022-09-07T23:29:16.289Z,12.73
2022-09-07T23:31:48.202Z,13.35
2022-09-07T23:34:17.472Z,13.52
2022-09-07T23:36:44.206Z,13.40
2022-09-07T23:39:12.320Z,12.68
2022-09-07T23:41:41.511Z,13.13
2022-09-07T23:44:08.541Z,13.13
2022-09-07T23:46:36.109Z,13.70
2022-09-07T23:49:03.926Z,13.10
2022-09-07T23:51:30.645Z,13.55
2022-09-07T23:53:58.008Z,14.75
2022-09-07T23:56:31.205Z,13.43
2022-09-07T23:59:00.816Z,13.18
